createdAt,value
2023-01-06T00:01:12.362Z,0.95
2023-01-06T00:04:15.336Z,0.90
2023-01-06T00:07:17.694Z,0.90
2023-01-06T00:10:20.582Z,0.70
2023-01-06T00:13:23.997Z,0.70
2023-01-06T00:16:26.931Z,0.70
2023-01-06T00:19:29.548Z,0.57
2023-01-06T00:22:32.248Z,0.60
2023-01-06T00:25:35.519Z,0.60
2023-01-06T00:28:39.900Z,0.60
2023-01-06T00:31:42.197Z,0.60
2023-01-06T00:34:44.996Z,0.68
2023-01-06T00:37:47.451Z,0.65
2023-01-06T00:40:50.107Z,0.68
2023-01-06T00:43:52.556Z,0.65
2023-01-06T00:46:55.208Z,0.60
2023-01-06T00:49:57.598Z,0.93
2023-01-06T00:53:00.379Z,0.68
2023-01-06T00:56:02.893Z,0.82
2023-01-06T00:59:07.063Z,0.50
2023-01-06T01:02:09.520Z,0.60
2023-01-06T01:05:12.247Z,0.80
2023-01-06T01:08:14.877Z,0.60
2023-01-06T01:11:36.174Z,0.45
2023-01-06T01:14:43.942Z,0.70
2023-01-06T01:17:46.573Z,0.88
2023-01-06T01:20:48.960Z,0.70
2023-01-06T01:23:51.803Z,0.62
2023-01-06T01:26:54.889Z,0.70
2023-01-06T01:29:57.464Z,0.70
2023-01-06T01:32:59.862Z,0.70
2023-01-06T01:36:06.804Z,0.50
2023-01-06T01:39:09.388Z,0.60
2023-01-06T01:42:18.084Z,0.80
2023-01-06T01:45:29.447Z,0.60
2023-01-06T01:48:35.449Z,0.60
2023-01-06T01:51:42.288Z,0.57
2023-01-06T01:54:46.153Z,0.70
2023-01-06T01:58:17.048Z,0.68
2023-01-06T02:01:20.361Z,0.70
2023-01-06T02:04:26.039Z,0.50
2023-01-06T02:07:28.698Z,0.68
2023-01-06T02:10:32.648Z,0.60
2023-01-06T02:13:38.702Z,0.62
2023-01-06T02:17:14.902Z,0.62
2023-01-06T02:20:45.051Z,0.70
2023-01-06T02:24:08.490Z,0.73
2023-01-06T02:27:56.329Z,0.90
2023-01-06T02:31:17.247Z,1.00
2023-01-06T02:34:54.867Z,0.90
2023-01-06T02:38:48.059Z,0.70
2023-01-06T02:42:05.144Z,0.70
2023-01-06T02:45:14.006Z,0.60
2023-01-06T02:48:35.317Z,0.65
2023-01-06T02:52:05.468Z,0.80
2023-01-06T02:55:43.300Z,0.80
2023-01-06T02:58:59.594Z,0.70
2023-01-06T03:02:04.601Z,0.75
2023-01-06T03:05:10.251Z,0.82
2023-01-06T03:08:18.843Z,0.95
2023-01-06T03:11:21.744Z,0.73
2023-01-06T03:14:39.246Z,1.03
2023-01-06T03:17:41.723Z,0.88
2023-01-06T03:20:45.443Z,0.85
2023-01-06T03:23:48.216Z,0.75
2023-01-06T03:26:52.911Z,0.63
2023-01-06T03:29:55.729Z,0.60
2023-01-06T03:33:17.287Z,0.75
2023-01-06T03:36:40.851Z,0.98
2023-01-06T03:39:49.627Z,0.70
2023-01-06T03:43:13.048Z,0.85
2023-01-06T03:46:27.017Z,0.60
2023-01-06T03:49:35.584Z,0.73
2023-01-06T03:52:48.226Z,0.88
2023-01-06T03:55:58.627Z,0.90
2023-01-06T03:59:05.757Z,0.65
2023-01-06T04:02:09.716Z,0.85
2023-01-06T04:05:20.033Z,0.70
2023-01-06T04:08:23.154Z,1.00
2023-01-06T04:11:44.878Z,0.70
2023-01-06T04:14:48.317Z,0.65
2023-01-06T04:17:52.376Z,0.90
2023-01-06T04:20:55.031Z,0.75
2023-01-06T04:23:59.181Z,1.05
2023-01-06T04:27:01.591Z,0.70
2023-01-06T04:30:05.715Z,0.70
2023-01-06T04:33:08.848Z,0.60
2023-01-06T04:36:12.798Z,0.80
2023-01-06T04:39:15.653Z,0.80
2023-01-06T04:42:18.206Z,0.50
2023-01-06T04:45:20.600Z,0.80
2023-01-06T04:48:23.207Z,0.80
2023-01-06T04:51:25.559Z,0.70
2023-01-06T04:54:28.572Z,0.80
2023-01-06T04:57:30.953Z,0.93
2023-01-06T05:00:34.090Z,0.85
2023-01-06T05:03:37.119Z,0.73
2023-01-06T05:06:40.095Z,0.77
2023-01-06T05:09:42.528Z,1.98
2023-01-06T05:12:45.134Z,1.70
2023-01-06T05:15:47.453Z,1.10
2023-01-06T05:18:50.608Z,0.90
2023-01-06T05:21:53.002Z,1.00
2023-01-06T05:24:55.612Z,1.00
2023-01-06T05:27:58.004Z,1.08
2023-01-06T05:31:01.559Z,1.00
2023-01-06T05:34:03.873Z,1.17
2023-01-06T05:37:06.574Z,1.20
2023-01-06T05:40:09.547Z,0.85
2023-01-06T05:43:12.158Z,0.90
2023-01-06T05:46:14.598Z,0.77
2023-01-06T05:49:17.249Z,4.93
2023-01-06T05:52:19.607Z,1.80
2023-01-06T05:55:22.234Z,1.00
2023-01-06T05:58:24.583Z,0.93
2023-01-06T06:01:29.722Z,0.90
2023-01-06T06:04:32.441Z,0.90
2023-01-06T06:07:34.775Z,0.98
2023-01-06T06:10:37.400Z,1.00
2023-01-06T06:13:45.582Z,0.75
2023-01-06T06:16:48.283Z,0.98
2023-01-06T06:19:50.720Z,1.30
2023-01-06T06:22:53.428Z,1.20
2023-01-06T06:25:55.801Z,1.40
2023-01-06T06:28:58.601Z,1.20
2023-01-06T06:32:01.327Z,1.48
2023-01-06T06:35:06.769Z,1.65
2023-01-06T06:38:09.083Z,1.33
2023-01-06T06:41:12.372Z,0.95
2023-01-06T06:44:15.067Z,1.08
2023-01-06T06:47:17.732Z,1.02
2023-01-06T06:50:20.077Z,1.05
2023-01-06T06:53:22.731Z,1.10
2023-01-06T06:56:25.282Z,1.10
2023-01-06T06:59:27.925Z,1.20
2023-01-06T07:02:30.314Z,1.48
2023-01-06T07:05:32.916Z,1.60
2023-01-06T07:08:35.254Z,1.33
2023-01-06T07:11:37.989Z,1.50
2023-01-06T07:14:40.355Z,1.25
2023-01-06T07:17:43.049Z,1.08
2023-01-06T07:20:53.018Z,1.10
2023-01-06T07:23:55.742Z,1.12
2023-01-06T07:26:58.393Z,1.20
2023-01-06T07:30:02.291Z,1.40
2023-01-06T07:33:04.744Z,1.20
2023-01-06T07:36:08.024Z,1.37
2023-01-06T07:39:10.369Z,1.25
2023-01-06T07:42:13.056Z,1.98
2023-01-06T07:45:15.473Z,1.17
2023-01-06T07:48:18.355Z,1.40
2023-01-06T07:51:22.168Z,1.60
2023-01-06T07:54:24.902Z,1.48
2023-01-06T07:57:28.936Z,1.70
2023-01-06T08:00:31.653Z,1.30
2023-01-06T08:03:34.776Z,1.25
2023-01-06T08:06:40.517Z,1.05
2023-01-06T08:09:43.521Z,1.20
2023-01-06T08:12:45.868Z,1.25
2023-01-06T08:15:51.887Z,1.30
2023-01-06T08:18:54.701Z,1.20
2023-01-06T08:21:57.371Z,1.23
2023-01-06T08:24:59.724Z,1.10
2023-01-06T08:28:02.414Z,1.20
2023-01-06T08:31:08.268Z,1.30
2023-01-06T08:34:14.496Z,1.70
2023-01-06T08:37:17.046Z,1.50
2023-01-06T08:40:19.807Z,1.87
2023-01-06T08:43:22.718Z,1.50
2023-01-06T08:46:26.608Z,1.65
2023-01-06T08:49:29.055Z,1.30
2023-01-06T08:52:32.270Z,1.50
2023-01-06T08:55:37.718Z,1.30
2023-01-06T08:58:40.531Z,1.35
2023-01-06T09:01:44.262Z,1.37
2023-01-06T09:04:48.700Z,1.48
2023-01-06T09:07:51.149Z,1.17
2023-01-06T09:10:53.755Z,1.45
2023-01-06T09:13:56.115Z,1.35
2023-01-06T09:16:58.780Z,1.23
2023-01-06T09:20:01.184Z,1.60
2023-01-06T09:23:05.171Z,1.23
2023-01-06T09:26:09.147Z,1.20
2023-01-06T09:29:11.871Z,1.30
2023-01-06T09:32:14.459Z,1.48
2023-01-06T09:35:17.183Z,1.65
2023-01-06T09:38:19.487Z,2.00
2023-01-06T09:42:03.942Z,1.17
2023-01-06T09:45:08.689Z,1.50
2023-01-06T09:48:16.454Z,1.67
2023-01-06T09:51:23.177Z,1.48
2023-01-06T09:54:31.520Z,1.10
2023-01-06T09:58:13.028Z,1.48
2023-01-06T10:01:24.149Z,1.20
2023-01-06T10:04:29.941Z,1.50
2023-01-06T10:07:38.978Z,1.60
2023-01-06T10:10:56.608Z,1.33
2023-01-06T10:14:23.595Z,1.37
2023-01-06T10:18:01.778Z,1.40
2023-01-06T10:21:18.979Z,1.37
2023-01-06T10:24:24.645Z,1.25
2023-01-06T10:27:39.467Z,1.25
2023-01-06T10:30:46.276Z,1.60
2023-01-06T10:33:54.030Z,1.25
2023-01-06T10:37:15.533Z,1.33
2023-01-06T10:40:25.618Z,1.37
2023-01-06T10:43:29.157Z,1.25
2023-01-06T10:46:35.726Z,1.77
2023-01-06T10:49:38.589Z,1.48
2023-01-06T10:52:41.248Z,1.35
2023-01-06T10:55:55.004Z,1.25
2023-01-06T10:59:05.781Z,1.40
2023-01-06T11:02:23.430Z,1.42
2023-01-06T11:05:28.892Z,1.52
2023-01-06T11:08:32.593Z,1.12
2023-01-06T11:11:47.464Z,1.00
2023-01-06T11:15:00.074Z,1.37
2023-01-06T11:18:04.271Z,1.15
2023-01-06T11:21:13.200Z,1.17
2023-01-06T11:24:25.375Z,1.30
2023-01-06T11:27:28.104Z,2.42
2023-01-06T11:30:30.523Z,1.23
2023-01-06T11:33:37.981Z,1.30
2023-01-06T11:36:45.617Z,1.10
2023-01-06T11:39:51.995Z,1.37
2023-01-06T11:43:07.553Z,1.20
2023-01-06T11:46:13.045Z,1.00
2023-01-06T11:49:21.572Z,1.15
2023-01-06T11:52:31.383Z,1.48
2023-01-06T11:55:33.920Z,1.00
2023-01-06T11:59:10.890Z,1.12
2023-01-06T12:02:22.974Z,1.12
2023-01-06T12:05:35.248Z,0.95
2023-01-06T12:08:47.582Z,0.95
2023-01-06T12:11:53.112Z,1.30
2023-01-06T12:14:56.634Z,0.95
2023-01-06T12:18:07.811Z,1.00
2023-01-06T12:21:27.783Z,0.95
2023-01-06T12:24:33.477Z,1.05
2023-01-06T12:27:44.041Z,1.10
2023-01-06T12:30:59.844Z,1.20
2023-01-06T12:34:29.650Z,1.40
2023-01-06T12:37:48.345Z,1.30
2023-01-06T12:40:55.947Z,2.17
2023-01-06T12:44:17.681Z,1.40
2023-01-06T12:48:01.645Z,1.30
2023-01-06T12:51:16.294Z,1.62
2023-01-06T12:54:32.776Z,1.23
2023-01-06T12:57:44.085Z,1.25
2023-01-06T13:01:01.626Z,1.40
2023-01-06T13:04:44.365Z,1.40
2023-01-06T13:08:00.382Z,1.40
2023-01-06T13:11:27.839Z,1.25
2023-01-06T13:14:39.935Z,1.65
2023-01-06T13:18:21.481Z,1.65
2023-01-06T13:21:24.949Z,1.60
2023-01-06T13:24:45.661Z,1.60
2023-01-06T13:27:53.813Z,1.52
2023-01-06T13:31:17.503Z,1.60
2023-01-06T13:34:44.541Z,2.05
2023-01-06T13:38:13.785Z,1.50
2023-01-06T13:41:23.963Z,1.37
2023-01-06T13:44:30.388Z,1.75
2023-01-06T13:47:33.334Z,1.60
2023-01-06T13:50:41.171Z,1.62
2023-01-06T13:53:46.099Z,1.75
2023-01-06T13:57:20.589Z,1.80
2023-01-06T14:00:26.854Z,1.90
2023-01-06T14:03:29.599Z,1.80
2023-01-06T14:06:39.905Z,1.90
2023-01-06T14:09:50.328Z,2.05
2023-01-06T14:12:53.596Z,1.85
2023-01-06T14:16:01.946Z,2.00
2023-01-06T14:19:28.485Z,1.85
2023-01-06T14:22:32.061Z,2.28
2023-01-06T14:25:40.400Z,2.15
2023-01-06T14:28:43.021Z,1.80
2023-01-06T14:31:45.403Z,1.60
2023-01-06T14:34:57.889Z,1.77
2023-01-06T14:38:04.973Z,1.77
2023-01-06T14:41:34.847Z,1.80
2023-01-06T14:44:44.518Z,1.80
2023-01-06T14:47:53.699Z,1.95
2023-01-06T14:50:58.968Z,1.95
2023-01-06T14:54:10.014Z,2.55
2023-01-06T14:57:37.260Z,2.40
2023-01-06T15:00:46.067Z,2.62
2023-01-06T15:03:59.991Z,2.42
2023-01-06T15:10:21.170Z,2.25
2023-01-06T15:13:28.473Z,2.78
2023-01-06T15:16:39.376Z,2.92
2023-01-06T15:19:44.275Z,3.40
2023-01-06T15:22:49.296Z,3.70
2023-01-06T15:25:55.014Z,3.90
2023-01-06T15:29:00.977Z,3.50
2023-01-06T15:32:07.138Z,3.75
2023-01-06T15:35:14.547Z,4.30
2023-01-06T15:38:28.505Z,4.00
2023-01-06T15:41:33.096Z,4.20
2023-01-06T15:44:38.452Z,3.85
2023-01-06T15:47:47.046Z,4.28
2023-01-06T15:50:52.058Z,4.25
2023-01-06T15:53:57.589Z,3.83
2023-01-06T15:57:15.221Z,4.53
2023-01-06T16:00:25.221Z,4.80
2023-01-06T16:03:30.788Z,4.45
2023-01-06T16:06:37.159Z,4.10
2023-01-06T16:09:39.805Z,4.03
2023-01-06T16:12:42.182Z,4.72
2023-01-06T16:15:51.765Z,4.90
2023-01-06T16:18:55.099Z,4.65
2023-01-06T16:22:00.630Z,4.68
2023-01-06T16:25:07.810Z,4.80
2023-01-06T16:28:19.235Z,4.60
2023-01-06T16:31:40.439Z,4.55
2023-01-06T16:34:51.383Z,4.62
2023-01-06T16:37:54.125Z,4.62
2023-01-06T16:40:56.724Z,5.10
2023-01-06T16:43:59.051Z,5.07
2023-01-06T16:47:02.603Z,5.45
2023-01-06T16:50:21.639Z,6.10
2023-01-06T16:53:27.760Z,5.25
2023-01-06T16:56:30.090Z,5.62
2023-01-06T16:59:36.136Z,5.80
2023-01-06T17:02:38.838Z,5.95
2023-01-06T17:05:43.344Z,6.00
2023-01-06T17:08:46.685Z,6.07
2023-01-06T17:11:51.162Z,6.60
2023-01-06T17:14:53.464Z,7.40
2023-01-06T17:17:56.106Z,6.53
2023-01-06T17:21:03.936Z,7.18
2023-01-06T17:24:17.204Z,7.53
2023-01-06T17:27:27.942Z,6.93
2023-01-06T17:30:30.633Z,8.07
2023-01-06T17:33:32.994Z,8.07
2023-01-06T17:36:38.485Z,8.50
2023-01-06T17:39:43.545Z,8.15
2023-01-06T17:42:54.100Z,8.68
2023-01-06T17:45:59.445Z,9.13
2023-01-06T17:49:08.373Z,9.52
2023-01-06T17:52:15.313Z,9.20
2023-01-06T17:55:51.402Z,9.77
2023-01-06T17:59:06.867Z,9.35
2023-01-06T18:02:29.465Z,9.60
2023-01-06T18:05:35.575Z,9.93
2023-01-06T18:08:40.814Z,10.07
2023-01-06T18:11:51.748Z,9.35
2023-01-06T18:14:56.735Z,9.85
2023-01-06T18:18:18.173Z,9.82
2023-01-06T18:21:29.569Z,9.50
2023-01-06T18:24:38.223Z,9.20
2023-01-06T18:27:42.841Z,9.50
2023-01-06T18:30:48.613Z,9.50
2023-01-06T18:33:51.321Z,10.05
2023-01-06T18:36:56.027Z,10.10
2023-01-06T18:40:08.428Z,10.57
2023-01-06T18:43:30.105Z,10.38
2023-01-06T18:46:34.468Z,10.23
2023-01-06T18:49:37.180Z,11.38
2023-01-06T18:52:44.107Z,10.00
2023-01-06T18:55:51.192Z,10.45
2023-01-06T18:58:57.272Z,11.20
2023-01-06T19:02:00.971Z,9.70
2023-01-06T19:05:10.995Z,10.48
2023-01-06T19:08:18.361Z,10.43
2023-01-06T19:11:26.309Z,9.82
2023-01-06T19:14:34.342Z,9.75
2023-01-06T19:17:41.971Z,9.68
2023-01-06T19:20:46.626Z,10.27
2023-01-06T19:23:48.984Z,9.80
2023-01-06T19:26:51.673Z,9.88
2023-01-06T19:29:56.484Z,10.55
2023-01-06T19:33:16.225Z,10.98
2023-01-06T19:36:30.833Z,11.15
2023-01-06T19:39:39.763Z,12.13
2023-01-06T19:42:44.699Z,12.23
2023-01-06T19:45:47.398Z,11.73
2023-01-06T19:48:52.159Z,13.18
2023-01-06T19:51:55.117Z,12.60
2023-01-06T19:55:12.289Z,12.37
2023-01-06T19:58:21.169Z,11.98
2023-01-06T20:01:24.203Z,13.38
2023-01-06T20:04:27.807Z,13.82
2023-01-06T20:07:30.145Z,13.70
2023-01-06T20:10:32.856Z,13.18
2023-01-06T20:13:35.261Z,14.23
2023-01-06T20:16:38.182Z,15.38
2023-01-06T20:19:42.877Z,14.23
2023-01-06T20:22:45.716Z,14.77
2023-01-06T20:25:48.108Z,15.32
2023-01-06T20:28:51.884Z,16.42
2023-01-06T20:31:54.298Z,15.80
2023-01-06T20:34:57.674Z,16.05
2023-01-06T20:38:00.112Z,16.73
2023-01-06T20:41:02.816Z,17.55
2023-01-06T20:44:05.290Z,16.45
2023-01-06T20:47:08.269Z,17.62
2023-01-06T20:50:13.704Z,16.90
2023-01-06T20:53:16.453Z,17.50
2023-01-06T20:56:18.796Z,17.02
2023-01-06T20:59:21.504Z,16.87
2023-01-06T21:02:23.966Z,16.75
2023-01-06T21:05:27.005Z,16.05
2023-01-06T21:08:29.464Z,17.17
2023-01-06T21:11:32.866Z,16.70
2023-01-06T21:14:35.467Z,17.63
2023-01-06T21:17:38.406Z,17.00
2023-01-06T21:20:40.917Z,16.87
2023-01-06T21:23:43.563Z,17.90
2023-01-06T21:26:46.221Z,18.27
2023-01-06T21:29:48.976Z,17.30
2023-01-06T21:32:51.859Z,16.75
2023-01-06T21:35:56.013Z,17.43
2023-01-06T21:42:19.549Z,15.02
2023-01-06T21:45:22.193Z,14.40
2023-01-06T21:48:25.891Z,14.68
2023-01-06T21:51:30.968Z,13.88
2023-01-06T21:54:35.269Z,14.85
2023-01-06T21:57:37.734Z,14.05
2023-01-06T22:00:40.474Z,13.82
2023-01-06T22:03:43.198Z,13.93
2023-01-06T22:06:46.976Z,13.90
2023-01-06T22:09:50.714Z,13.55
2023-01-06T22:12:56.581Z,16.10
2023-01-06T22:15:59.701Z,15.57
2023-01-06T22:19:02.176Z,16.60
2023-01-06T22:22:06.009Z,17.50
2023-01-06T22:25:09.107Z,17.55
2023-01-06T22:28:14.323Z,17.50
2023-01-06T22:31:17.921Z,17.67
2023-01-06T22:34:20.676Z,16.80
2023-01-06T22:37:23.103Z,17.12
2023-01-06T22:40:25.977Z,16.65
2023-01-06T22:43:28.412Z,17.00
2023-01-06T22:46:31.631Z,17.50
2023-01-06T22:49:34.061Z,17.50
2023-01-06T22:52:36.766Z,17.33
2023-01-06T22:55:39.155Z,18.48
2023-01-06T22:58:41.930Z,18.58
2023-01-06T23:01:44.429Z,17.25
2023-01-06T23:04:47.163Z,18.02
2023-01-06T23:07:49.567Z,17.52
2023-01-06T23:11:01.608Z,18.27
2023-01-06T23:14:04.149Z,17.17
2023-01-06T23:17:06.783Z,16.98
2023-01-06T23:20:09.723Z,18.77
2023-01-06T23:23:12.295Z,19.85
2023-01-06T23:26:20.973Z,19.52
2023-01-06T23:29:23.683Z,18.80
2023-01-06T23:32:26.071Z,19.58
2023-01-06T23:35:32.115Z,17.83
2023-01-06T23:38:36.930Z,19.23
2023-01-06T23:41:39.910Z,18.55
2023-01-06T23:44:42.257Z,20.40
2023-01-06T23:47:45.873Z,19.73
2023-01-06T23:50:53.775Z,20.80
2023-01-06T23:53:56.819Z,19.50
2023-01-06T23:56:59.457Z,19.52
